sensor_id;sensor_type;location;lat;lon;timestamp;pressure;altitude;pressure_sealevel;temperature;humidity
31538;BME280;18147;51.952;6.146;2023-02-20T00:01:50;102481.50;;;5.57;100.00
31538;BME280;18147;51.952;6.146;2023-02-20T00:04:16;102484.22;;;5.52;100.00
31538;BME280;18147;51.952;6.146;2023-02-20T00:06:41;102487.50;;;5.68;100.00
31538;BME280;18147;51.952;6.146;2023-02-20T00:09:07;102474.53;;;5.53;100.00
31538;BME280;18147;51.952;6.146;2023-02-20T00:11:32;102470.81;;;5.64;100.00
31538;BME280;18147;51.952;6.146;2023-02-20T00:13:58;102466.34;;;5.66;100.00
31538;BME280;18147;51.952;6.146;2023-02-20T00:16:23;102450.28;;;5.77;100.00
31538;BME280;18147;51.952;6.146;2023-02-20T00:18:49;102451.97;;;5.81;100.00
31538;BME280;18147;51.952;6.146;2023-02-20T00:21:14;102451.78;;;5.95;100.00
31538;BME280;18147;51.952;6.146;2023-02-20T00:23:40;102455.16;;;6.02;100.00
31538;BME280;18147;51.952;6.146;2023-02-20T00:26:10;102443.47;;;6.15;100.00
31538;BME280;18147;51.952;6.146;2023-02-20T00:28:40;102435.56;;;6.12;100.00
31538;BME280;18147;51.952;6.146;2023-02-20T00:31:07;102435.50;;;6.15;100.00
31538;BME280;18147;51.952;6.146;2023-02-20T00:33:34;102424.09;;;6.13;100.00
31538;BME280;18147;51.952;6.146;2023-02-20T00:36:01;102410.59;;;6.25;100.00
31538;BME280;18147;51.952;6.146;2023-02-20T00:38:26;102409.34;;;6.41;100.00
31538;BME280;18147;51.952;6.146;2023-02-20T00:40:52;102403.50;;;6.26;100.00
31538;BME280;18147;51.952;6.146;2023-02-20T00:43:17;102399.00;;;6.31;100.00
31538;BME280;18147;51.952;6.146;2023-02-20T00:45:43;102386.47;;;6.37;100.00
31538;BME280;18147;51.952;6.146;2023-02-20T00:48:08;102384.88;;;6.30;100.00
31538;BME280;18147;51.952;6.146;2023-02-20T00:50:34;102394.44;;;6.37;100.00
31538;BME280;18147;51.952;6.146;2023-02-20T00:52:59;102398.63;;;6.47;100.00
31538;BME280;18147;51.952;6.146;2023-02-20T00:55:25;102389.78;;;6.48;100.00
31538;BME280;18147;51.952;6.146;2023-02-20T00:57:50;102395.88;;;6.54;100.00
31538;BME280;18147;51.952;6.146;2023-02-20T01:00:20;102389.75;;;6.50;100.00
31538;BME280;18147;51.952;6.146;2023-02-20T01:02:46;102382.28;;;6.69;100.00
31538;BME280;18147;51.952;6.146;2023-02-20T01:05:12;102380.69;;;6.60;100.00
31538;BME280;18147;51.952;6.146;2023-02-20T01:07:37;102362.09;;;6.63;100.00
31538;BME280;18147;51.952;6.146;2023-02-20T01:10:06;102361.28;;;6.60;100.00
31538;BME280;18147;51.952;6.146;2023-02-20T01:12:32;102356.75;;;6.65;100.00
31538;BME280;18147;51.952;6.146;2023-02-20T01:14:57;102361.16;;;6.64;100.00
31538;BME280;18147;51.952;6.146;2023-02-20T01:17:29;102365.81;;;6.55;100.00
31538;BME280;18147;51.952;6.146;2023-02-20T01:19:54;102365.81;;;6.55;100.00
31538;BME280;18147;51.952;6.146;2023-02-20T01:22:20;102349.00;;;6.56;100.00
31538;BME280;18147;51.952;6.146;2023-02-20T01:24:48;102357.97;;;6.50;100.00
31538;BME280;18147;51.952;6.146;2023-02-20T01:27:14;102348.28;;;6.47;100.00
31538;BME280;18147;51.952;6.146;2023-02-20T01:29:39;102345.84;;;6.38;100.00
31538;BME280;18147;51.952;6.146;2023-02-20T01:32:05;102333.72;;;6.28;100.00
31538;BME280;18147;51.952;6.146;2023-02-20T01:34:30;102337.13;;;6.33;100.00
31538;BME280;18147;51.952;6.146;2023-02-20T01:36:56;102343.53;;;6.21;100.00
31538;BME280;18147;51.952;6.146;2023-02-20T01:39:26;102320.66;;;6.17;100.00
31538;BME280;18147;51.952;6.146;2023-02-20T01:42:00;102319.25;;;6.01;100.00
31538;BME280;18147;51.952;6.146;2023-02-20T01:44:29;102315.84;;;5.96;100.00
31538;BME280;18147;51.952;6.146;2023-02-20T01:46:57;102314.91;;;5.99;100.00
31538;BME280;18147;51.952;6.146;2023-02-20T01:49:49;102314.88;;;6.00;100.00
31538;BME280;18147;51.952;6.146;2023-02-20T01:52:20;102297.44;;;5.88;100.00
31538;BME280;18147;51.952;6.146;2023-02-20T01:55:09;102302.19;;;5.72;100.00
31538;BME280;18147;51.952;6.146;2023-02-20T01:57:37;102300.03;;;5.90;100.00
31538;BME280;18147;51.952;6.146;2023-02-20T02:00:13;102301.31;;;5.70;100.00
31538;BME280;18147;51.952;6.146;2023-02-20T02:02:58;102310.63;;;5.93;100.00
31538;BME280;18147;51.952;6.146;2023-02-20T02:05:27;102298.22;;;5.95;100.00
31538;BME280;18147;51.952;6.146;2023-02-20T02:07:54;102301.72;;;5.95;100.00
31538;BME280;18147;51.952;6.146;2023-02-20T02:10:24;102299.22;;;5.88;100.00
31538;BME280;18147;51.952;6.146;2023-02-20T02:12:55;102298.53;;;5.78;100.00
31538;BME280;18147;51.952;6.146;2023-02-20T02:15:22;102295.84;;;5.80;100.00
31538;BME280;18147;51.952;6.146;2023-02-20T02:26:34;102286.47;;;5.63;100.00
31538;BME280;18147;51.952;6.146;2023-02-20T02:34:49;102258.94;;;5.72;100.00
31538;BME280;18147;51.952;6.146;2023-02-20T02:40:47;102255.22;;;5.81;100.00
31538;BME280;18147;51.952;6.146;2023-02-20T02:43:31;102245.84;;;5.66;100.00
31538;BME280;18147;51.952;6.146;2023-02-20T02:46:05;102251.53;;;5.89;100.00
31538;BME280;18147;51.952;6.146;2023-02-20T02:48:36;102257.88;;;5.81;100.00
31538;BME280;18147;51.952;6.146;2023-02-20T02:51:12;102267.69;;;5.76;100.00
31538;BME280;18147;51.952;6.146;2023-02-20T02:53:38;102257.81;;;5.84;100.00
31538;BME280;18147;51.952;6.146;2023-02-20T02:56:04;102256.03;;;5.84;100.00
31538;BME280;18147;51.952;6.146;2023-02-20T02:58:49;102258.84;;;5.77;100.00
31538;BME280;18147;51.952;6.146;2023-02-20T03:01:19;102256.78;;;5.91;100.00
31538;BME280;18147;51.952;6.146;2023-02-20T03:03:49;102254.31;;;5.83;100.00
31538;BME280;18147;51.952;6.146;2023-02-20T03:06:19;102243.88;;;6.17;100.00
31538;BME280;18147;51.952;6.146;2023-02-20T03:11:31;102243.91;;;6.16;100.00
31538;BME280;18147;51.952;6.146;2023-02-20T03:21:55;102243.00;;;6.56;100.00
31538;BME280;18147;51.952;6.146;2023-02-20T03:24:24;102245.84;;;6.46;100.00
31538;BME280;18147;51.952;6.146;2023-02-20T03:26:52;102234.09;;;6.58;100.00
31538;BME280;18147;51.952;6.146;2023-02-20T03:29:24;102243.53;;;6.70;100.00
31538;BME280;18147;51.952;6.146;2023-02-20T03:32:00;102237.47;;;6.65;100.00
31538;BME280;18147;51.952;6.146;2023-02-20T03:34:48;102237.53;;;6.63;100.00
31538;BME280;18147;51.952;6.146;2023-02-20T03:37:35;102226.06;;;6.63;100.00
31538;BME280;18147;51.952;6.146;2023-02-20T03:40:21;102224.06;;;6.71;100.00
31538;BME280;18147;51.952;6.146;2023-02-20T03:43:12;102225.13;;;6.64;100.00
31538;BME280;18147;51.952;6.146;2023-02-20T03:45:50;102225.94;;;6.66;100.00
31538;BME280;18147;51.952;6.146;2023-02-20T03:48:27;102227.63;;;6.70;100.00
31538;BME280;18147;51.952;6.146;2023-02-20T03:50:57;102225.84;;;6.70;100.00
31538;BME280;18147;51.952;6.146;2023-02-20T03:54:04;102220.50;;;6.72;100.00
31538;BME280;18147;51.952;6.146;2023-02-20T03:56:35;102222.38;;;6.68;100.00
31538;BME280;18147;51.952;6.146;2023-02-20T03:59:11;102221.34;;;6.72;100.00
31538;BME280;18147;51.952;6.146;2023-02-20T04:01:40;102221.34;;;6.74;100.00
31538;BME280;18147;51.952;6.146;2023-02-20T04:04:13;102224.75;;;6.78;100.00
31538;BME280;18147;51.952;6.146;2023-02-20T04:06:42;102223.75;;;6.83;100.00
31538;BME280;18147;51.952;6.146;2023-02-20T04:09:11;102215.94;;;6.77;100.00
31538;BME280;18147;51.952;6.146;2023-02-20T04:11:45;102228.53;;;6.69;100.00
31538;BME280;18147;51.952;6.146;2023-02-20T04:14:13;102220.19;;;6.84;100.00
31538;BME280;18147;51.952;6.146;2023-02-20T04:16:49;102210.25;;;6.92;100.00
31538;BME280;18147;51.952;6.146;2023-02-20T04:19:16;102219.34;;;6.82;100.00
31538;BME280;18147;51.952;6.146;2023-02-20T04:21:50;102220.09;;;6.87;100.00
31538;BME280;18147;51.952;6.146;2023-02-20T04:24:32;102217.38;;;6.90;100.00
31538;BME280;18147;51.952;6.146;2023-02-20T04:26:59;102218.38;;;6.86;100.00
31538;BME280;18147;51.952;6.146;2023-02-20T04:29:26;102216.63;;;6.85;100.00
31538;BME280;18147;51.952;6.146;2023-02-20T04:31:54;102211.22;;;6.90;100.00
31538;BME280;18147;51.952;6.146;2023-02-20T04:34:23;102205.66;;;6.99;100.00
31538;BME280;18147;51.952;6.146;2023-02-20T04:37:02;102204.69;;;7.03;100.00
31538;BME280;18147;51.952;6.146;2023-02-20T04:39:31;102212.66;;;7.01;100.00
31538;BME280;18147;51.952;6.146;2023-02-20T04:41:58;102203.03;;;6.97;100.00
31538;BME280;18147;51.952;6.146;2023-02-20T04:44:23;102204.75;;;7.00;100.00
31538;BME280;18147;51.952;6.146;2023-02-20T04:47:02;102212.50;;;7.08;100.00
31538;BME280;18147;51.952;6.146;2023-02-20T04:49:29;102219.69;;;7.03;100.00
31538;BME280;18147;51.952;6.146;2023-02-20T04:51:56;102202.91;;;7.02;100.00
31538;BME280;18147;51.952;6.146;2023-02-20T04:54:21;102192.31;;;7.02;100.00
31538;BME280;18147;51.952;6.146;2023-02-20T04:56:49;102201.88;;;7.08;100.00
31538;BME280;18147;51.952;6.146;2023-02-20T04:59:15;102187.63;;;7.12;100.00
31538;BME280;18147;51.952;6.146;2023-02-20T05:01:41;102194.91;;;7.05;100.00
31538;BME280;18147;51.952;6.146;2023-02-20T05:06:52;102199.09;;;7.14;100.00
31538;BME280;18147;51.952;6.146;2023-02-20T05:12:08;102197.78;;;7.29;100.00
31538;BME280;18147;51.952;6.146;2023-02-20T05:14:34;102198.75;;;7.26;100.00
31538;BME280;18147;51.952;6.146;2023-02-20T05:16:59;102200.53;;;7.25;100.00
31538;BME280;18147;51.952;6.146;2023-02-20T05:19:25;102196.09;;;7.26;100.00
31538;BME280;18147;51.952;6.146;2023-02-20T05:21:50;102188.34;;;7.18;100.00
31538;BME280;18147;51.952;6.146;2023-02-20T05:27:00;102192.38;;;7.33;100.00
31538;BME280;18147;51.952;6.146;2023-02-20T05:29:26;102190.59;;;7.32;100.00
31538;BME280;18147;51.952;6.146;2023-02-20T05:31:51;102180.84;;;7.34;100.00
31538;BME280;18147;51.952;6.146;2023-02-20T05:34:17;102182.50;;;7.37;100.00
31538;BME280;18147;51.952;6.146;2023-02-20T05:36:45;102198.22;;;7.44;100.00
31538;BME280;18147;51.952;6.146;2023-02-20T05:39:14;102195.59;;;7.43;100.00
31538;BME280;18147;51.952;6.146;2023-02-20T05:41:39;102181.47;;;7.42;100.00
31538;BME280;18147;51.952;6.146;2023-02-20T05:44:05;102181.47;;;7.42;100.00
31538;BME280;18147;51.952;6.146;2023-02-20T05:46:31;102183.19;;;7.45;100.00
31538;BME280;18147;51.952;6.146;2023-02-20T05:48:56;102168.97;;;7.46;100.00
31538;BME280;18147;51.952;6.146;2023-02-20T05:51:31;102168.66;;;7.57;100.00
31538;BME280;18147;51.952;6.146;2023-02-20T05:53:57;102168.78;;;7.53;100.00
31538;BME280;18147;51.952;6.146;2023-02-20T05:56:25;102161.06;;;7.44;100.00
31538;BME280;18147;51.952;6.146;2023-02-20T05:58:52;102161.81;;;7.49;100.00
31538;BME280;18147;51.952;6.146;2023-02-20T06:01:25;102160.28;;;7.41;100.00
31538;BME280;18147;51.952;6.146;2023-02-20T06:03:51;102161.09;;;7.43;100.00
31538;BME280;18147;51.952;6.146;2023-02-20T06:06:17;102149.41;;;7.50;100.00
31538;BME280;18147;51.952;6.146;2023-02-20T06:08:43;102158.19;;;7.52;100.00
31538;BME280;18147;51.952;6.146;2023-02-20T06:11:10;102142.31;;;7.50;100.00
31538;BME280;18147;51.952;6.146;2023-02-20T06:13:39;102159.31;;;7.73;100.00
31538;BME280;18147;51.952;6.146;2023-02-20T06:16:06;102158.97;;;7.56;100.00
31538;BME280;18147;51.952;6.146;2023-02-20T06:18:31;102158.78;;;7.62;100.00
31538;BME280;18147;51.952;6.146;2023-02-20T06:20:57;102169.19;;;7.69;100.00
31538;BME280;18147;51.952;6.146;2023-02-20T06:23:28;102162.16;;;7.68;100.00
31538;BME280;18147;51.952;6.146;2023-02-20T06:25:53;102164.97;;;7.62;100.00
31538;BME280;18147;51.952;6.146;2023-02-20T06:28:19;102159.25;;;7.76;100.00
31538;BME280;18147;51.952;6.146;2023-02-20T06:30:46;102149.75;;;7.67;100.00
31538;BME280;18147;51.952;6.146;2023-02-20T06:33:11;102156.59;;;7.76;100.00
31538;BME280;18147;51.952;6.146;2023-02-20T06:35:37;102163.75;;;7.72;100.00
31538;BME280;18147;51.952;6.146;2023-02-20T06:38:02;102159.88;;;7.84;100.00
31538;BME280;18147;51.952;6.146;2023-02-20T06:40:28;102156.63;;;7.74;100.00
31538;BME280;18147;51.952;6.146;2023-02-20T06:42:53;102156.44;;;7.81;100.00
31538;BME280;18147;51.952;6.146;2023-02-20T06:45:19;102164.47;;;7.79;100.00
31538;BME280;18147;51.952;6.146;2023-02-20T06:47:44;102166.06;;;7.85;100.00
31538;BME280;18147;51.952;6.146;2023-02-20T06:50:10;102157.97;;;7.89;100.00
31538;BME280;18147;51.952;6.146;2023-02-20T06:52:35;102174.97;;;7.84;100.00
31538;BME280;18147;51.952;6.146;2023-02-20T06:55:01;102155.38;;;7.86;100.00
31538;BME280;18147;51.952;6.146;2023-02-20T06:57:27;102163.41;;;7.85;100.00
31538;BME280;18147;51.952;6.146;2023-02-20T06:59:52;102165.94;;;7.89;100.00
31538;BME280;18147;51.952;6.146;2023-02-20T07:02:18;102160.03;;;7.79;100.00
31538;BME280;18147;51.952;6.146;2023-02-20T07:04:47;102156.94;;;7.93;100.00
31538;BME280;18147;51.952;6.146;2023-02-20T07:07:13;102165.72;;;7.95;100.00
31538;BME280;18147;51.952;6.146;2023-02-20T07:09:39;102149.72;;;7.98;100.00
31538;BME280;18147;51.952;6.146;2023-02-20T07:12:05;102155.97;;;7.96;100.00
31538;BME280;18147;51.952;6.146;2023-02-20T07:14:30;102154.09;;;7.99;100.00
31538;BME280;18147;51.952;6.146;2023-02-20T07:16:56;102164.66;;;8.01;100.00
31538;BME280;18147;51.952;6.146;2023-02-20T07:19:21;102172.56;;;8.02;100.00
31538;BME280;18147;51.952;6.146;2023-02-20T07:21:47;102162.78;;;8.04;100.00
31538;BME280;18147;51.952;6.146;2023-02-20T07:24:13;102164.72;;;7.99;100.00
31538;BME280;18147;51.952;6.146;2023-02-20T07:26:38;102172.69;;;7.99;100.00
31538;BME280;18147;51.952;6.146;2023-02-20T07:29:05;102168.75;;;8.11;100.00
31538;BME280;18147;51.952;6.146;2023-02-20T07:31:31;102173.06;;;8.15;100.00
31538;BME280;18147;51.952;6.146;2023-02-20T07:33:57;102165.16;;;8.14;100.00
31538;BME280;18147;51.952;6.146;2023-02-20T07:36:23;102180.31;;;8.10;100.00
31538;BME280;18147;51.952;6.146;2023-02-20T07:38:55;102171.94;;;8.22;100.00
31538;BME280;18147;51.952;6.146;2023-02-20T07:41:22;102173.00;;;8.17;100.00
31538;BME280;18147;51.952;6.146;2023-02-20T07:43:48;102169.28;;;8.22;100.00
31538;BME280;18147;51.952;6.146;2023-02-20T07:46:14;102159.97;;;8.37;100.00
31538;BME280;18147;51.952;6.146;2023-02-20T07:48:39;102162.91;;;8.28;100.00
31538;BME280;18147;51.952;6.146;2023-02-20T07:51:05;102162.91;;;8.28;100.00
31538;BME280;18147;51.952;6.146;2023-02-20T07:53:30;102170.00;;;8.27;100.00
31538;BME280;18147;51.952;6.146;2023-02-20T07:55:56;102165.69;;;8.25;100.00
31538;BME280;18147;51.952;6.146;2023-02-20T07:58:21;102169.91;;;8.30;100.00
31538;BME280;18147;51.952;6.146;2023-02-20T08:00:48;102170.69;;;8.34;100.00
31538;BME280;18147;51.952;6.146;2023-02-20T08:03:16;102176.16;;;8.29;100.00
31538;BME280;18147;51.952;6.146;2023-02-20T08:05:42;102178.66;;;8.34;100.00
31538;BME280;18147;51.952;6.146;2023-02-20T08:08:07;102173.91;;;8.45;100.00
31538;BME280;18147;51.952;6.146;2023-02-20T08:10:33;102157.41;;;8.34;100.00
31538;BME280;18147;51.952;6.146;2023-02-20T08:12:59;102178.38;;;8.43;100.00
31538;BME280;18147;51.952;6.146;2023-02-20T08:15:26;102184.75;;;8.38;100.00
31538;BME280;18147;51.952;6.146;2023-02-20T08:17:52;102172.16;;;8.44;100.00
31538;BME280;18147;51.952;6.146;2023-02-20T08:20:19;102174.13;;;8.38;100.00
31538;BME280;18147;51.952;6.146;2023-02-20T08:22:45;102164.06;;;8.47;100.00
31538;BME280;18147;51.952;6.146;2023-02-20T08:25:13;102169.34;;;8.49;100.00
31538;BME280;18147;51.952;6.146;2023-02-20T08:27:44;102175.94;;;8.37;100.00
31538;BME280;18147;51.952;6.146;2023-02-20T08:30:16;102172.75;;;8.52;100.00
31538;BME280;18147;51.952;6.146;2023-02-20T08:32:45;102175.25;;;8.57;100.00
31538;BME280;18147;51.952;6.146;2023-02-20T08:35:11;102171.69;;;8.58;100.00
31538;BME280;18147;51.952;6.146;2023-02-20T08:37:36;102173.72;;;8.76;100.00
31538;BME280;18147;51.952;6.146;2023-02-20T08:40:02;102166.31;;;8.86;100.00
31538;BME280;18147;51.952;6.146;2023-02-20T08:42:31;102163.84;;;8.80;100.00
31538;BME280;18147;51.952;6.146;2023-02-20T08:44:57;102168.34;;;8.78;100.00
31538;BME280;18147;51.952;6.146;2023-02-20T08:47:23;102168.25;;;8.81;100.00
31538;BME280;18147;51.952;6.146;2023-02-20T08:49:49;102169.03;;;8.85;100.00
31538;BME280;18147;51.952;6.146;2023-02-20T08:52:15;102165.91;;;8.97;100.00
31538;BME280;18147;51.952;6.146;2023-02-20T08:54:44;102159.19;;;8.87;100.00
31538;BME280;18147;51.952;6.146;2023-02-20T08:57:09;102145.50;;;8.72;100.00
31538;BME280;18147;51.952;6.146;2023-02-20T08:59:35;102146.75;;;8.87;100.00
31538;BME280;18147;51.952;6.146;2023-02-20T09:02:02;102151.53;;;8.77;100.00
31538;BME280;18147;51.952;6.146;2023-02-20T09:04:28;102146.44;;;8.96;100.00
31538;BME280;18147;51.952;6.146;2023-02-20T09:06:54;102144.78;;;8.92;100.00
31538;BME280;18147;51.952;6.146;2023-02-20T09:09:19;102135.63;;;9.01;100.00
31538;BME280;18147;51.952;6.146;2023-02-20T09:11:45;102146.91;;;9.07;100.00
31538;BME280;18147;51.952;6.146;2023-02-20T09:14:10;102136.97;;;9.13;100.00
31538;BME280;18147;51.952;6.146;2023-02-20T09:16:36;102134.44;;;9.10;100.00
31538;BME280;18147;51.952;6.146;2023-02-20T09:19:07;102128.00;;;9.39;100.00
31538;BME280;18147;51.952;6.146;2023-02-20T09:21:33;102124.03;;;9.27;100.00
31538;BME280;18147;51.952;6.146;2023-02-20T09:23:59;102125.88;;;9.48;100.00
31538;BME280;18147;51.952;6.146;2023-02-20T09:26:25;102119.75;;;9.46;100.00
31538;BME280;18147;51.952;6.146;2023-02-20T09:28:50;102114.38;;;9.24;100.00
31538;BME280;18147;51.952;6.146;2023-02-20T09:31:16;102117.06;;;9.23;100.00
31538;BME280;18147;51.952;6.146;2023-02-20T09:33:45;102114.59;;;9.42;100.00
31538;BME280;18147;51.952;6.146;2023-02-20T09:36:11;102106.09;;;9.32;100.00
31538;BME280;18147;51.952;6.146;2023-02-20T09:38:37;102100.31;;;9.44;100.00
31538;BME280;18147;51.952;6.146;2023-02-20T09:41:03;102107.41;;;9.20;100.00
31538;BME280;18147;51.952;6.146;2023-02-20T09:43:32;102107.75;;;9.58;100.00
31538;BME280;18147;51.952;6.146;2023-02-20T09:46:22;102113.13;;;9.33;100.00
31538;BME280;18147;51.952;6.146;2023-02-20T09:51:34;102117.31;;;9.40;100.00
31538;BME280;18147;51.952;6.146;2023-02-20T09:54:09;102124.47;;;9.38;100.00
31538;BME280;18147;51.952;6.146;2023-02-20T09:56:39;102121.81;;;9.38;100.00
31538;BME280;18147;51.952;6.146;2023-02-20T09:59:14;102133.00;;;9.48;100.00
31538;BME280;18147;51.952;6.146;2023-02-20T10:01:50;102120.59;;;9.47;100.00
31538;BME280;18147;51.952;6.146;2023-02-20T10:04:20;102118.84;;;9.24;100.00
31538;BME280;18147;51.952;6.146;2023-02-20T10:06:49;102129.69;;;9.41;100.00
31538;BME280;18147;51.952;6.146;2023-02-20T10:09:15;102112.88;;;9.41;100.00
31538;BME280;18147;51.952;6.146;2023-02-20T10:12:06;102115.78;;;9.33;100.00
31538;BME280;18147;51.952;6.146;2023-02-20T10:17:33;102115.91;;;9.53;100.00
31538;BME280;18147;51.952;6.146;2023-02-20T10:23:30;102139.59;;;9.14;100.00
31538;BME280;18147;51.952;6.146;2023-02-20T10:26:01;102147.41;;;9.19;100.00
31538;BME280;18147;51.952;6.146;2023-02-20T10:28:29;102144.34;;;9.29;100.00
31538;BME280;18147;51.952;6.146;2023-02-20T10:31:00;102137.66;;;9.18;100.00
31538;BME280;18147;51.952;6.146;2023-02-20T10:36:36;102150.59;;;9.52;100.00
31538;BME280;18147;51.952;6.146;2023-02-20T10:39:07;102140.63;;;9.33;100.00
31538;BME280;18147;51.952;6.146;2023-02-20T10:41:46;102148.44;;;9.38;100.00
31538;BME280;18147;51.952;6.146;2023-02-20T10:44:26;102147.22;;;9.23;100.00
31538;BME280;18147;51.952;6.146;2023-02-20T10:49:37;102145.59;;;9.43;100.00
31538;BME280;18147;51.952;6.146;2023-02-20T10:52:11;102156.72;;;9.30;100.00
31538;BME280;18147;51.952;6.146;2023-02-20T10:54:40;102155.88;;;9.30;100.00
31538;BME280;18147;51.952;6.146;2023-02-20T10:57:11;102153.63;;;9.18;100.00
31538;BME280;18147;51.952;6.146;2023-02-20T10:59:47;102154.47;;;9.20;100.00
31538;BME280;18147;51.952;6.146;2023-02-20T11:02:20;102156.25;;;9.19;100.00
31538;BME280;18147;51.952;6.146;2023-02-20T11:05:04;102165.97;;;9.44;100.00
31538;BME280;18147;51.952;6.146;2023-02-20T11:07:31;102161.72;;;9.40;100.00
31538;BME280;18147;51.952;6.146;2023-02-20T11:09:57;102135.09;;;9.40;100.00
31538;BME280;18147;51.952;6.146;2023-02-20T11:12:45;102122.13;;;9.30;100.00
31538;BME280;18147;51.952;6.146;2023-02-20T11:15:15;102125.41;;;9.37;100.00
31538;BME280;18147;51.952;6.146;2023-02-20T11:17:43;102126.63;;;9.52;100.00
31538;BME280;18147;51.952;6.146;2023-02-20T11:22:58;102121.91;;;9.58;100.00
31538;BME280;18147;51.952;6.146;2023-02-20T11:25:33;102106.38;;;9.48;100.00
31538;BME280;18147;51.952;6.146;2023-02-20T11:28:10;102121.63;;;9.66;100.00
31538;BME280;18147;51.952;6.146;2023-02-20T11:30:43;102094.41;;;9.36;100.00
31538;BME280;18147;51.952;6.146;2023-02-20T11:33:18;102103.88;;;9.43;100.00
31538;BME280;18147;51.952;6.146;2023-02-20T11:35:58;102092.78;;;9.55;100.00
31538;BME280;18147;51.952;6.146;2023-02-20T11:38:34;102090.19;;;9.30;100.00
31538;BME280;18147;51.952;6.146;2023-02-20T11:41:23;102088.41;;;9.53;100.00
31538;BME280;18147;51.952;6.146;2023-02-20T11:46:35;102081.09;;;9.58;100.00
31538;BME280;18147;51.952;6.146;2023-02-20T11:49:21;102117.25;;;9.42;100.00
31538;BME280;18147;51.952;6.146;2023-02-20T11:51:48;102118.53;;;9.55;100.00
31538;BME280;18147;51.952;6.146;2023-02-20T11:54:23;102102.03;;;9.45;100.00
31538;BME280;18147;51.952;6.146;2023-02-20T11:57:01;102091.16;;;9.51;100.00
31538;BME280;18147;51.952;6.146;2023-02-20T11:59:39;102093.81;;;9.73;100.00
31538;BME280;18147;51.952;6.146;2023-02-20T12:07:36;102073.09;;;9.36;100.00
31538;BME280;18147;51.952;6.146;2023-02-20T12:10:17;102082.88;;;9.59;100.00
31538;BME280;18147;51.952;6.146;2023-02-20T12:12:44;102083.66;;;9.61;100.00
31538;BME280;18147;51.952;6.146;2023-02-20T12:15:15;102082.44;;;9.70;100.00
31538;BME280;18147;51.952;6.146;2023-02-20T12:21:01;102103.59;;;9.51;100.00
31538;BME280;18147;51.952;6.146;2023-02-20T12:23:38;102096.56;;;9.72;100.00
31538;BME280;18147;51.952;6.146;2023-02-20T12:26:18;102098.97;;;9.56;100.00
31538;BME280;18147;51.952;6.146;2023-02-20T12:37:28;102112.19;;;9.81;100.00
31538;BME280;18147;51.952;6.146;2023-02-20T12:43:07;102108.72;;;9.79;100.00
31538;BME280;18147;51.952;6.146;2023-02-20T12:54:06;102082.63;;;9.65;100.00
31538;BME280;18147;51.952;6.146;2023-02-20T12:57:06;102072.09;;;9.84;100.00
31538;BME280;18147;51.952;6.146;2023-02-20T13:02:34;102066.78;;;9.84;100.00
31538;BME280;18147;51.952;6.146;2023-02-20T13:05:02;102066.56;;;9.89;100.00
31538;BME280;18147;51.952;6.146;2023-02-20T13:07:44;102069.91;;;9.94;100.00
31538;BME280;18147;51.952;6.146;2023-02-20T13:10:41;102064.13;;;9.84;100.00
31538;BME280;18147;51.952;6.146;2023-02-20T13:13:01;102059.69;;;9.83;100.00
31538;BME280;18147;51.952;6.146;2023-02-20T13:15:46;102061.56;;;9.81;100.00
31538;BME280;18147;51.952;6.146;2023-02-20T13:21:05;102058.78;;;9.84;100.00
31538;BME280;18147;51.952;6.146;2023-02-20T13:23:35;102055.72;;;9.93;100.00
31538;BME280;18147;51.952;6.146;2023-02-20T13:26:02;102060.06;;;9.96;100.00
31538;BME280;18147;51.952;6.146;2023-02-20T13:28:40;102062.56;;;10.00;100.00
31538;BME280;18147;51.952;6.146;2023-02-20T13:31:16;102049.53;;;10.15;100.00
31538;BME280;18147;51.952;6.146;2023-02-20T13:33:51;102055.91;;;10.10;100.00
31538;BME280;18147;51.952;6.146;2023-02-20T13:36:42;102059.88;;;10.00;100.00
31538;BME280;18147;51.952;6.146;2023-02-20T13:46:57;102032.91;;;10.08;100.00
31538;BME280;18147;51.952;6.146;2023-02-20T13:52:46;102026.56;;;9.90;100.00
31538;BME280;18147;51.952;6.146;2023-02-20T13:55:23;102016.50;;;9.97;100.00
31538;BME280;18147;51.952;6.146;2023-02-20T14:00:45;102014.44;;;10.03;100.00
31538;BME280;18147;51.952;6.146;2023-02-20T14:03:20;102009.59;;;10.13;100.00
31538;BME280;18147;51.952;6.146;2023-02-20T14:06:12;102016.50;;;9.97;100.00
31538;BME280;18147;51.952;6.146;2023-02-20T14:08:43;102009.47;;;10.16;100.00
31538;BME280;18147;51.952;6.146;2023-02-20T14:11:10;102019.25;;;10.16;100.00
31538;BME280;18147;51.952;6.146;2023-02-20T14:13:38;102018.97;;;10.01;100.00
31538;BME280;18147;51.952;6.146;2023-02-20T14:16:23;102009.03;;;9.84;100.00
31538;BME280;18147;51.952;6.146;2023-02-20T14:18:54;101995.34;;;10.14;100.00
31538;BME280;18147;51.952;6.146;2023-02-20T14:21:21;101992.25;;;10.03;100.00
31538;BME280;18147;51.952;6.146;2023-02-20T14:23:51;101984.53;;;9.97;100.00
31538;BME280;18147;51.952;6.146;2023-02-20T14:26:18;101982.41;;;10.05;100.00
31538;BME280;18147;51.952;6.146;2023-02-20T14:28:47;101972.44;;;9.88;100.00
31538;BME280;18147;51.952;6.146;2023-02-20T14:31:22;101961.75;;;10.10;100.00
31538;BME280;18147;51.952;6.146;2023-02-20T14:33:57;101965.28;;;10.10;100.00
31538;BME280;18147;51.952;6.146;2023-02-20T14:36:32;101962.00;;;10.04;100.00
31538;BME280;18147;51.952;6.146;2023-02-20T14:42:00;101970.25;;;9.98;100.00
31538;BME280;18147;51.952;6.146;2023-02-20T14:44:27;101969.81;;;10.08;100.00
31538;BME280;18147;51.952;6.146;2023-02-20T14:47:09;101976.53;;;9.97;100.00
31538;BME280;18147;51.952;6.146;2023-02-20T14:49:37;101975.00;;;9.91;100.00
31538;BME280;18147;51.952;6.146;2023-02-20T14:54:39;101977.19;;;10.02;100.00
31538;BME280;18147;51.952;6.146;2023-02-20T14:57:05;101974.47;;;10.03;100.00